Observation data for Denver City on 01/10/2018      Previous  Date  Next       Current Mesonet Observations  Soil Data  Daily Summary Page  Observations in Plain Language
KDVS 100600Z 23008KT 07/M01 A2988 RMK A01 T00701014  RH  056%=      5-min Rain = 0
KDVS 100605Z 24007KT 07/M01 A2989 RMK A01 T00691014  RH  056%=      5-min Rain = 0
KDVS 100610Z 24007KT 07/M02 A2989 RMK A01 T00651016  RH  057%=      5-min Rain = 0
KDVS 100615Z 24007KT 06/M02 A2989 RMK A01 T00621016  RH  058%=      5-min Rain = 0
KDVS 100620Z 24007KT 06/M02 A2988 RMK A01 T00621015  RH  058%=      5-min Rain = 0
KDVS 100625Z 23007KT 06/M02 A2988 RMK A01 T00601016  RH  059%=      5-min Rain = 0
KDVS 100630Z 23006KT 06/M02 A2987 RMK A01 T00611015  RH  059%=      5-min Rain = 0
KDVS 100635Z 22007KT 06/M02 A2987 RMK A01 T00621015  RH  059%=      5-min Rain = 0
KDVS 100640Z 22008KT 06/M01 A2987 RMK A01 T00621014  RH  059%=      5-min Rain = 0
KDVS 100645Z 22008KT 06/M02 A2987 RMK A01 T00601015  RH  059%=      5-min Rain = 0
KDVS 100650Z 22008KT 06/M01 A2987 RMK A01 T00601014  RH  060%=      5-min Rain = 0
KDVS 100655Z 22008KT 06/M01 A2987 RMK A01 T00591014  RH  060%=      5-min Rain = 0
KDVS 100700Z 22009KT 06/M01 A2987 RMK A01 T00601013  RH  060%=      5-min Rain = 0
KDVS 100705Z 21009KT 06/M01 A2987 RMK A01 T00621012  RH  060%=      5-min Rain = 0
KDVS 100710Z 20011KT 07/M01 A2986 RMK A01 T00651010  RH  059%=      5-min Rain = 0
KDVS 100715Z 20011KT 07/M01 A2986 RMK A01 T00711008  RH  058%=      5-min Rain = 0
KDVS 100720Z 21011KT 07/M01 A2986 RMK A01 T00721009  RH  057%=      5-min Rain = 0
KDVS 100725Z 21011KT 07/M01 A2986 RMK A01 T00701010  RH  057%=      5-min Rain = 0
KDVS 100730Z 21010KT 07/M01 A2985 RMK A01 T00711009  RH  057%=      5-min Rain = 0
KDVS 100735Z 21011KT 07/M01 A2986 RMK A01 T00701010  RH  057%=      5-min Rain = 0
KDVS 100740Z 21011KT 07/M01 A2986 RMK A01 T00701010  RH  057%=      5-min Rain = 0
KDVS 100745Z 21011KT 07/M01 A2985 RMK A01 T00721009  RH  057%=      5-min Rain = 0
KDVS 100750Z 21009KT 07/M01 A2985 RMK A01 T00731009  RH  057%=      5-min Rain = 0
KDVS 100755Z 21009KT 07/M01 A2985 RMK A01 T00721008  RH  057%=      5-min Rain = 0
KDVS 100800Z 21009KT 07/M01 A2985 RMK A01 T00741007  RH  057%=      5-min Rain = 0
KDVS 100805Z 21009KT 08/M01 A2985 RMK A01 T00761006  RH  057%=      5-min Rain = 0
KDVS 100810Z 21009KT 08/M01 A2985 RMK A01 T00761006  RH  057%=      5-min Rain = 0
KDVS 100815Z 21009KT 07/M01 A2985 RMK A01 T00741007  RH  057%=      5-min Rain = 0
KDVS 100820Z 21010KT 07/M01 A2984 RMK A01 T00731007  RH  057%=      5-min Rain = 0
KDVS 100825Z 22010KT 07/M01 A2984 RMK A01 T00741007  RH  057%=      5-min Rain = 0
KDVS 100830Z 21010KT 07/M01 A2984 RMK A01 T00731006  RH  058%=      5-min Rain = 0
KDVS 100835Z 21010KT 07/M01 A2984 RMK A01 T00741005  RH  058%=      5-min Rain = 0
KDVS 100840Z 21010KT 08/M00 A2984 RMK A01 T00761004  RH  058%=      5-min Rain = 0
KDVS 100845Z 22009KT 08/M00 A2984 RMK A01 T00761004  RH  057%=      5-min Rain = 0
KDVS 100850Z 22008KT 08/M01 A2984 RMK A01 T00751005  RH  058%=      5-min Rain = 0
KDVS 100855Z 22009KT 07/M01 A2983 RMK A01 T00741005  RH  058%=      5-min Rain = 0
KDVS 100900Z 22008KT 07/M01 A2983 RMK A01 T00731006  RH  058%=      5-min Rain = 0
KDVS 100905Z 21008KT 07/M01 A2983 RMK A01 T00721006  RH  058%=      5-min Rain = 0
KDVS 100910Z 21008KT 07/M01 A2982 RMK A01 T00711006  RH  059%=      5-min Rain = 0
KDVS 100915Z 21009KT 07/M01 A2982 RMK A01 T00701005  RH  060%=      5-min Rain = 0
KDVS 100920Z 21008KT 07/M00 A2982 RMK A01 T00701004  RH  060%=      5-min Rain = 0
KDVS 100925Z 21009KT 07/M00 A2982 RMK A01 T00721003  RH  059%=      5-min Rain = 0
KDVS 100930Z 21008KT 07/M00 A2982 RMK A01 T00731003  RH  059%=      5-min Rain = 0
KDVS 100935Z 21008KT 07/M00 A2982 RMK A01 T00741002  RH  059%=      5-min Rain = 0
KDVS 100940Z 21007KT 07/M00 A2981 RMK A01 T00731002  RH  060%=      5-min Rain = 0
KDVS 100945Z 21007KT 07/M00 A2981 RMK A01 T00721002  RH  060%=      5-min Rain = 0
KDVS 100950Z 21007KT 07/M00 A2981 RMK A01 T00721002  RH  060%=      5-min Rain = 0
KDVS 100955Z 22006KT 07/M00 A2981 RMK A01 T00711002  RH  060%=      5-min Rain = 0
KDVS 101000Z 22007KT 07/M00 A2981 RMK A01 T00701002  RH  061%=      5-min Rain = 0
KDVS 101005Z 22007KT 07/M00 A2981 RMK A01 T00701002  RH  061%=      5-min Rain = 0
KDVS 101010Z 22007KT 07/M00 A2981 RMK A01 T00711002  RH  060%=      5-min Rain = 0
KDVS 101015Z 22006KT 07/M00 A298 RMK A01 T00711002  RH  060%=      5-min Rain = 0
KDVS 101020Z 23008KT 07/M00 A298 RMK A01 T00701003  RH  061%=      5-min Rain = 0
KDVS 101025Z 23008KT 07/M00 A298 RMK A01 T00691003  RH  061%=      5-min Rain = 0
KDVS 101030Z 23008KT 07/M00 A298 RMK A01 T00691003  RH  061%=      5-min Rain = 0
KDVS 101035Z 23008KT 07/M00 A298 RMK A01 T00701002  RH  060%=      5-min Rain = 0
KDVS 101040Z 24008KT 07/M00 A298 RMK A01 T00701002  RH  061%=      5-min Rain = 0
KDVS 101045Z 23007KT 07/M00 A298 RMK A01 T00701002  RH  061%=      5-min Rain = 0
KDVS 101050Z 24007KT 07/M00 A298 RMK A01 T00701001  RH  061%=      5-min Rain = 0
KDVS 101055Z 25008KT 07/M00 A2979 RMK A01 T00701001  RH  061%=      5-min Rain = 0
KDVS 101100Z 24008KT 07/M00 A298 RMK A01 T00711001  RH  061%=      5-min Rain = 0
KDVS 101105Z 23008KT 07/M00 A298 RMK A01 T00701001  RH  061%=      5-min Rain = 0
KDVS 101110Z 22007KT 07/M00 A2979 RMK A01 T00711001  RH  061%=      5-min Rain = 0
KDVS 101115Z 22006KT 07/M00 A2979 RMK A01 T00701001  RH  061%=      5-min Rain = 0
KDVS 101120Z 24006KT 07/M00 A2979 RMK A01 T00681002  RH  062%=      5-min Rain = 0
KDVS 101125Z 23004KT 07/M00 A2979 RMK A01 T00661002  RH  062%=      5-min Rain = 0
KDVS 101130Z 22004KT 07/M00 A2979 RMK A01 T00651002  RH  063%=      5-min Rain = 0
KDVS 101135Z 24005KT 06/M00 A298 RMK A01 T00641003  RH  063%=      5-min Rain = 0
KDVS 101140Z 25005KT 06/M00 A298 RMK A01 T00631003  RH  064%=      5-min Rain = 0
KDVS 101145Z 26005KT 06/M00 A2979 RMK A01 T00621002  RH  064%=      5-min Rain = 0
KDVS 101150Z 25005KT 06/M00 A2979 RMK A01 T00621001  RH  064%=      5-min Rain = 0
KDVS 101155Z 25005KT 06/M00 A2979 RMK A01 T00621001  RH  064%=      5-min Rain = 0
KDVS 101200Z 23004KT 06/M00 A2979 RMK A01 T00631001  RH  064%=      5-min Rain = 0
KDVS 101205Z 24005KT 06/M00 A2979 RMK A01 T00611002  RH  065%=      5-min Rain = 0
KDVS 101210Z 25005KT 06/M00 A2979 RMK A01 T00601002  RH  065%=      5-min Rain = 0
KDVS 101215Z 26004KT 06/M00 A2978 RMK A01 T00601002  RH  065%=      5-min Rain = 0
KDVS 101220Z 25004KT 06/M00 A2978 RMK A01 T00601003  RH  065%=      5-min Rain = 0
KDVS 101225Z 25004KT 06/M00 A2978 RMK A01 T00591003  RH  065%=      5-min Rain = 0
KDVS 101230Z 24005KT 06/M00 A2978 RMK A01 T00581004  RH  065%=      5-min Rain = 0
KDVS 101235Z 20004KT 06/M01 A2977 RMK A01 T00561005  RH  065%=      5-min Rain = 0
KDVS 101240Z 18004KT 05/M01 A2977 RMK A01 T00521008  RH  066%=      5-min Rain = 0
KDVS 101245Z 19004KT 05/M01 A2977 RMK A01 T00461009  RH  068%=      5-min Rain = 0
KDVS 101250Z 19005KT 04/M01 A2977 RMK A01 T00431008  RH  070%=      5-min Rain = 0
KDVS 101255Z 20005KT 04/M01 A2977 RMK A01 T00421008  RH  071%=      5-min Rain = 0
KDVS 101300Z 20006KT 04/M01 A2977 RMK A01 T00391010  RH  071%=      5-min Rain = 0
KDVS 101305Z 19006KT 04/M01 A2977 RMK A01 T00371011  RH  071%=      5-min Rain = 0
KDVS 101310Z 19006KT 04/M01 A2976 RMK A01 T00361010  RH  072%=      5-min Rain = 0
KDVS 101315Z 20006KT 04/M01 A2976 RMK A01 T00381008  RH  073%=      5-min Rain = 0
KDVS 101320Z 20007KT 04/M01 A2976 RMK A01 T00421006  RH  072%=      5-min Rain = 0
KDVS 101325Z 20007KT 04/M01 A2976 RMK A01 T00441005  RH  071%=      5-min Rain = 0
KDVS 101330Z 21007KT 05/M01 A2976 RMK A01 T00451005  RH  070%=      5-min Rain = 0
KDVS 101335Z 20007KT 05/M01 A2976 RMK A01 T00451005  RH  071%=      5-min Rain = 0
KDVS 101340Z 21007KT 04/M01 A2977 RMK A01 T00441005  RH  071%=      5-min Rain = 0
KDVS 101345Z 21007KT 04/M00 A2976 RMK A01 T00441004  RH  072%=      5-min Rain = 0
KDVS 101350Z 21007KT 05/M00 A2976 RMK A01 T00451003  RH  072%=      5-min Rain = 0
KDVS 101355Z 21007KT 05/M00 A2976 RMK A01 T00451003  RH  072%=      5-min Rain = 0
KDVS 101400Z 22007KT 04/M00 A2976 RMK A01 T00441003  RH  072%=      5-min Rain = 0
KDVS 101405Z 22006KT 04/M00 A2976 RMK A01 T00441002  RH  073%=      5-min Rain = 0
KDVS 101410Z 22007KT 05/M00 A2976 RMK A01 T00461001  RH  072%=      5-min Rain = 0
KDVS 101415Z 21007KT 05/M00 A2975 RMK A01 T00471001  RH  072%=      5-min Rain = 0
KDVS 101420Z 21007KT 05/00 A2975 RMK A01 T00490000  RH  071%=      5-min Rain = 0
KDVS 101425Z 21007KT 05/00 A2975 RMK A01 T00490000  RH  071%=      5-min Rain = 0
KDVS 101430Z 22007KT 05/00 A2975 RMK A01 T00490000  RH  071%=      5-min Rain = 0
KDVS 101435Z 22007KT 05/00 A2975 RMK A01 T00500001  RH  071%=      5-min Rain = 0
KDVS 101440Z 22007KT 05/00 A2975 RMK A01 T00540002  RH  070%=      5-min Rain = 0
KDVS 101445Z 23006KT 06/00 A2975 RMK A01 T00560002  RH  069%=      5-min Rain = 0
KDVS 101450Z 25005KT 06/00 A2976 RMK A01 T00590003  RH  068%=      5-min Rain = 0
KDVS 101455Z 24006KT 06/00 A2976 RMK A01 T00620004  RH  067%=      5-min Rain = 0
KDVS 101500Z 23006KT 07/01 A2976 RMK A01 T00660005  RH  066%=      5-min Rain = 0
KDVS 101505Z 22007KT 07/01 A2976 RMK A01 T00710006  RH  064%=      5-min Rain = 0
KDVS 101510Z 22007KT 08/01 A2976 RMK A01 T00770007  RH  062%=      5-min Rain = 0
KDVS 101515Z 22008KT 08/01 A2976 RMK A01 T00820009  RH  061%=      5-min Rain = 0
KDVS 101520Z 22009KT 09/01 A2976 RMK A01 T00880010  RH  059%=      5-min Rain = 0
KDVS 101525Z 21010KT 09/01 A2976 RMK A01 T00940010  RH  057%=      5-min Rain = 0
KDVS 101530Z 21010KT 10/01 A2976 RMK A01 T00990010  RH  055%=      5-min Rain = 0
KDVS 101535Z 22010KT 10/01 A2976 RMK A01 T01020010  RH  054%=      5-min Rain = 0
KDVS 101540Z 22010KT 11/01 A2976 RMK A01 T01050010  RH  052%=      5-min Rain = 0
KDVS 101545Z 22011KT 11/01 A2976 RMK A01 T01090009  RH  051%=      5-min Rain = 0
KDVS 101550Z 22011KT 11/01 A2976 RMK A01 T01140010  RH  049%=      5-min Rain = 0
KDVS 101555Z 22010KT 12/01 A2976 RMK A01 T01170009  RH  048%=      5-min Rain = 0
KDVS 101600Z 23010KT 12/01 A2976 RMK A01 T01210010  RH  047%=      5-min Rain = 0
KDVS 101605Z 22009KT 13/01 A2976 RMK A01 T01260010  RH  045%=      5-min Rain = 0
KDVS 101610Z 22010KT 13/01 A2976 RMK A01 T01330008  RH  043%=      5-min Rain = 0
KDVS 101615Z 22009KT 14/01 A2976 RMK A01 T01380008  RH  041%=      5-min Rain = 0
KDVS 101620Z 22010KT 15/01 A2975 RMK A01 T01450006  RH  039%=      5-min Rain = 0
KDVS 101625Z 21011KT 15/00 A2975 RMK A01 T01500003  RH  037%=      5-min Rain = 0
KDVS 101630Z 21011KT 15/00 A2975 RMK A01 T01540002  RH  036%=      5-min Rain = 0
KDVS 101635Z 21011KT 16/00 A2975 RMK A01 T01590001  RH  035%=      5-min Rain = 0
KDVS 101640Z 22010KT 16/M00 A2975 RMK A01 T01621001  RH  033%=      5-min Rain = 0
KDVS 101645Z 22011KT 17/M00 A2975 RMK A01 T01661002  RH  032%=      5-min Rain = 0
KDVS 101650Z 22011KT 17/M00 A2975 RMK A01 T01691002  RH  032%=      5-min Rain = 0
KDVS 101655Z 23012KT 17/M00 A2975 RMK A01 T01701002  RH  031%=      5-min Rain = 0
KDVS 101700Z 23015KT 18/M00 A2975 RMK A01 T01761004  RH  030%=      5-min Rain = 0
KDVS 101705Z 23014KT 18/M00 A2975 RMK A01 T01781003  RH  030%=      5-min Rain = 0
KDVS 101710Z 24014G19KT 19/M00 A2974 RMK A01 T01861004  RH  028%=      5-min Rain = 0
KDVS 101715Z 23015G20KT 19/M01 A2974 RMK A01 T01901007  RH  027%=      5-min Rain = 0
KDVS 101720Z 24016G21KT 19/M01 A2974 RMK A01 T01941009  RH  026%=      5-min Rain = 0
KDVS 101725Z 24016G23KT 20/M01 A2973 RMK A01 T01951010  RH  025%=      5-min Rain = 0
KDVS 101730Z 25019G25KT 20/M01 A2973 RMK A01 T02011014  RH  024%=      5-min Rain = 0
KDVS 101735Z 25020G25KT 20/M02 A2972 RMK A01 T02001017  RH  023%=      5-min Rain = 0
KDVS 101740Z 25020G26KT 20/M02 A2972 RMK A01 T02001016  RH  023%=      5-min Rain = 0
KDVS 101745Z 25023G29KT 20/M02 A2972 RMK A01 T02011015  RH  023%=      5-min Rain = 0
KDVS 101750Z 25022G27KT 20/M01 A2971 RMK A01 T02021014  RH  024%=      5-min Rain = 0
KDVS 101755Z 25022G28KT 20/M02 A2971 RMK A01 T02031015  RH  023%=      5-min Rain = 0
KDVS 101800Z 24024KT 20/M02 A297 RMK A01 T02041015  RH  023%=      5-min Rain = 0
KDVS 101805Z 25025G34KT 21/M02 A297 RMK A01 T02071016  RH  022%=      5-min Rain = 0
KDVS 101810Z 25027G33KT 20/M02 A2969 RMK A01 T02041017  RH  023%=      5-min Rain = 0
KDVS 101815Z 25029G35KT 20/M02 A2969 RMK A01 T02031019  RH  023%=      5-min Rain = 0
KDVS 101820Z 25030G36KT 20/M02 A2969 RMK A01 T02031018  RH  023%=      5-min Rain = 0
KDVS 101825Z 25026G31KT 21/M02 A2968 RMK A01 T02061017  RH  022%=      5-min Rain = 0
KDVS 101830Z 24026G34KT 21/M02 A2968 RMK A01 T02051017  RH  023%=      5-min Rain = 0
KDVS 101835Z 24027G35KT 21/M02 A2967 RMK A01 T02051017  RH  023%=      5-min Rain = 0
KDVS 101840Z 25024G29KT 21/M02 A2967 RMK A01 T02071016  RH  022%=      5-min Rain = 0
KDVS 101845Z 25024G30KT 21/M02 A2967 RMK A01 T02071017  RH  022%=      5-min Rain = 0
KDVS 101850Z 24027G32KT 21/M02 A2966 RMK A01 T02071018  RH  022%=      5-min Rain = 0
KDVS 101855Z 25027G36KT 21/M02 A2965 RMK A01 T02071019  RH  022%=      5-min Rain = 0
KDVS 101900Z 24026G32KT 21/M02 A2965 RMK A01 T02081020  RH  022%=      5-min Rain = 0
KDVS 101905Z 25025G33KT 21/M02 A2965 RMK A01 T02111021  RH  021%=      5-min Rain = 0
KDVS 101910Z 25026G32KT 21/M02 A2964 RMK A01 T02111022  RH  021%=      5-min Rain = 0
KDVS 101915Z 25028G34KT 21/M02 A2964 RMK A01 T02101024  RH  021%=      5-min Rain = 0
KDVS 101920Z 25027G33KT 21/M03 A2964 RMK A01 T02101025  RH  021%=      5-min Rain = 0
KDVS 101925Z 25027G36KT 21/M03 A2964 RMK A01 T02091027  RH  020%=      5-min Rain = 0
KDVS 101930Z 24030G38KT 21/M03 A2964 RMK A01 T02091026  RH  021%=      5-min Rain = 0
KDVS 101935Z 24027G33KT 21/M03 A2963 RMK A01 T02091026  RH  021%=      5-min Rain = 0
KDVS 101940Z 24025G32KT 21/M03 A2963 RMK A01 T02081026  RH  021%=      5-min Rain = 0
KDVS 101945Z 24026G34KT 21/M03 A2962 RMK A01 T02101026  RH  021%=      5-min Rain = 0
KDVS 101950Z 24027G36KT 21/M03 A2962 RMK A01 T02101026  RH  020%=      5-min Rain = 0
KDVS 101955Z 24027G35KT 20/M03 A2962 RMK A01 T02041028  RH  021%=      5-min Rain = 0
KDVS 102000Z 24029G38KT 20/M03 A2962 RMK A01 T02031029  RH  021%=      5-min Rain = 0
KDVS 102005Z 25029G36KT 21/M03 A2962 RMK A01 T02071032  RH  020%=      5-min Rain = 0
KDVS 102010Z 24026G32KT 21/M03 A2962 RMK A01 T02071031  RH  020%=      5-min Rain = 0
KDVS 102015Z 24025G31KT 21/M04 A2962 RMK A01 T02101035  RH  019%=      5-min Rain = 0
KDVS 102020Z 25028G37KT 21/M04 A2962 RMK A01 T02101036  RH  019%=      5-min Rain = 0
KDVS 102025Z 24027G35KT 21/M04 A2961 RMK A01 T02071037  RH  019%=      5-min Rain = 0
KDVS 102030Z 25029G35KT 21/M04 A2961 RMK A01 T02071039  RH  019%=      5-min Rain = 0
KDVS 102035Z 25028G37KT 21/M04 A2961 RMK A01 T02061038  RH  019%=      5-min Rain = 0
KDVS 102040Z 24027G33KT 21/M04 A2961 RMK A01 T02091036  RH  019%=      5-min Rain = 0
KDVS 102045Z 24030G39KT 21/M03 A2961 RMK A01 T02091031  RH  020%=      5-min Rain = 0
KDVS 102050Z 25030G43KT 21/M02 A2961 RMK A01 T02051023  RH  022%=      5-min Rain = 0
KDVS 102055Z 25033G39KT 20/M02 A2961 RMK A01 T02011021  RH  023%=      5-min Rain = 0
KDVS 102100Z 26035G41KT 20/M02 A2961 RMK A01 T01971022  RH  023%=      5-min Rain = 0
KDVS 102105Z 26032G39KT 20/M02 A2961 RMK A01 T01951015  RH  024%=      5-min Rain = 0
KDVS 102110Z 26036G46KT 19/00 A2961 RMK A01 T01900002  RH  029%=      5-min Rain = 0
KDVS 102115Z 26035G44KT 19/00 A2961 RMK A01 T01850004  RH  030%=      5-min Rain = 0
KDVS 102120Z 26032G44KT 18/00 A2962 RMK A01 T01790001  RH  030%=      5-min Rain = 0
KDVS 102125Z 26032G39KT 17/M01 A2963 RMK A01 T01741005  RH  030%=      5-min Rain = 0
KDVS 102130Z 28033G41KT 17/00 A2964 RMK A01 T01650003  RH  034%=      5-min Rain = 0
KDVS 102135Z 29032G40KT 15/01 A2964 RMK A01 T01460013  RH  041%=      5-min Rain = 0
KDVS 102140Z 29029G37KT 14/02 A2965 RMK A01 T01390016  RH  044%=      5-min Rain = 0
KDVS 102145Z 29028G34KT 14/02 A2965 RMK A01 T01370018  RH  045%=      5-min Rain = 0
KDVS 102150Z 28027G34KT 14/02 A2966 RMK A01 T01350021  RH  047%=      5-min Rain = 0
KDVS 102155Z 28027G35KT 14/02 A2966 RMK A01 T01380021  RH  046%=      5-min Rain = 0
KDVS 102200Z 28029G36KT 14/02 A2966 RMK A01 T01400015  RH  043%=      5-min Rain = 0
KDVS 102205Z 28027G37KT 14/02 A2967 RMK A01 T01370016  RH  044%=      5-min Rain = 0
KDVS 102210Z 27024G30KT 13/02 A2967 RMK A01 T01340017  RH  046%=      5-min Rain = 0
KDVS 102215Z 27026G32KT 13/02 A2967 RMK A01 T01300018  RH  047%=      5-min Rain = 0
KDVS 102220Z 26025G34KT 13/02 A2967 RMK A01 T01290021  RH  048%=      5-min Rain = 0
KDVS 102225Z 26025G30KT 13/02 A2967 RMK A01 T01260023  RH  050%=      5-min Rain = 0
KDVS 102230Z 26025G32KT 12/03 A2967 RMK A01 T01240026  RH  052%=      5-min Rain = 0
KDVS 102235Z 26024G32KT 12/02 A2967 RMK A01 T01210024  RH  052%=      5-min Rain = 0
KDVS 102240Z 26030G37KT 12/02 A2967 RMK A01 T01170016  RH  051%=      5-min Rain = 0
KDVS 102245Z 25030G38KT 11/01 A2966 RMK A01 T01130012  RH  050%=      5-min Rain = 0
KDVS 102250Z 25027G38KT 11/01 A2966 RMK A01 T01080013  RH  052%=      5-min Rain = 0
KDVS 102255Z 26021G28KT 11/01 A2965 RMK A01 T01060012  RH  053%=      5-min Rain = 0
KDVS 102300Z 25021G27KT 11/01 A2965 RMK A01 T01060011  RH  053%=      5-min Rain = 0
KDVS 102305Z 25022KT 11/01 A2965 RMK A01 T01060011  RH  052%=      5-min Rain = 0
KDVS 102310Z 24022G28KT 11/01 A2966 RMK A01 T01070009  RH  051%=      5-min Rain = 0
KDVS 102315Z 23020KT 11/01 A2965 RMK A01 T01070007  RH  051%=      5-min Rain = 0
KDVS 102320Z 23018G23KT 11/00 A2965 RMK A01 T01070001  RH  048%=      5-min Rain = 0
KDVS 102325Z 23017G25KT 11/00 A2964 RMK A01 T01080000  RH  048%=      5-min Rain = 0
KDVS 102330Z 23020G25KT 11/M00 A2964 RMK A01 T01091001  RH  047%=      5-min Rain = 0
KDVS 102335Z 23026G33KT 11/M00 A2964 RMK A01 T01111004  RH  046%=      5-min Rain = 0
KDVS 102340Z 23024G30KT 11/M00 A2964 RMK A01 T01101002  RH  046%=      5-min Rain = 0
KDVS 102345Z 24022G30KT 11/M00 A2964 RMK A01 T01081003  RH  047%=      5-min Rain = 0
KDVS 102350Z 24025G33KT 11/M00 A2964 RMK A01 T01061002  RH  048%=      5-min Rain = 0
KDVS 102355Z 24025G34KT 10/00 A2964 RMK A01 T01030000  RH  049%=      5-min Rain = 0
KDVS 110000Z 24024G30KT 10/00 A2964 RMK A01 T01010001  RH  050%=      5-min Rain = 0
KDVS 110005Z 24023KT 10/00 A2964 RMK A01 T00990002  RH  052%=      5-min Rain = 0
KDVS 110010Z 24022G28KT 10/01 A2964 RMK A01 T00970005  RH  053%=      5-min Rain = 0
KDVS 110015Z 24021G27KT 10/01 A2964 RMK A01 T00950007  RH  055%=      5-min Rain = 0
KDVS 110020Z 24021G26KT 09/01 A2964 RMK A01 T00930008  RH  056%=      5-min Rain = 0
KDVS 110025Z 24020G25KT 09/01 A2965 RMK A01 T00920009  RH  057%=      5-min Rain = 0
KDVS 110030Z 24019G24KT 09/01 A2965 RMK A01 T00920010  RH  057%=      5-min Rain = 0
KDVS 110035Z 23017KT 09/01 A2965 RMK A01 T00900010  RH  058%=      5-min Rain = 0
KDVS 110040Z 23017KT 09/01 A2965 RMK A01 T00870012  RH  060%=      5-min Rain = 0
KDVS 110045Z 23016KT 09/01 A2965 RMK A01 T00850013  RH  061%=      5-min Rain = 0
KDVS 110050Z 23015G20KT 08/02 A2965 RMK A01 T00830015  RH  063%=      5-min Rain = 0
KDVS 110055Z 23015KT 08/02 A2965 RMK A01 T00820016  RH  064%=      5-min Rain = 0
KDVS 110100Z 23016KT 08/02 A2965 RMK A01 T00810017  RH  065%=      5-min Rain = 0
KDVS 110105Z 23015KT 08/02 A2965 RMK A01 T00790017  RH  066%=      5-min Rain = 0
KDVS 110110Z 24015KT 08/02 A2965 RMK A01 T00780016  RH  066%=      5-min Rain = 0
KDVS 110115Z 24016KT 08/01 A2965 RMK A01 T00790014  RH  065%=      5-min Rain = 0
KDVS 110120Z 24017KT 08/01 A2965 RMK A01 T00820013  RH  063%=      5-min Rain = 0
KDVS 110125Z 25019G27KT 09/01 A2965 RMK A01 T00850011  RH  061%=      5-min Rain = 0
KDVS 110130Z 25023G29KT 09/01 A2965 RMK A01 T00920010  RH  057%=      5-min Rain = 0
KDVS 110135Z 26024G33KT 10/01 A2965 RMK A01 T00970008  RH  055%=      5-min Rain = 0
KDVS 110140Z 26023G29KT 10/01 A2964 RMK A01 T00990006  RH  053%=      5-min Rain = 0
KDVS 110145Z 26024G30KT 10/00 A2965 RMK A01 T01000003  RH  052%=      5-min Rain = 0
KDVS 110150Z 26022G29KT 10/00 A2965 RMK A01 T00990002  RH  051%=      5-min Rain = 0
KDVS 110155Z 26020KT 10/00 A2965 RMK A01 T00960001  RH  052%=      5-min Rain = 0
KDVS 110200Z 26020G25KT 10/00 A2965 RMK A01 T00950000  RH  052%=      5-min Rain = 0
KDVS 110205Z 26018KT 09/00 A2966 RMK A01 T009300-0  RH  053%=      5-min Rain = 0
KDVS 110210Z 26017G22KT 09/00 A2966 RMK A01 T00900001  RH  054%=      5-min Rain = 0
KDVS 110215Z 26017G25KT 09/00 A2966 RMK A01 T00890001  RH  055%=      5-min Rain = 0
KDVS 110220Z 26018KT 09/00 A2966 RMK A01 T00900001  RH  054%=      5-min Rain = 0
KDVS 110225Z 26016KT 09/00 A2966 RMK A01 T00880004  RH  056%=      5-min Rain = 0
KDVS 110230Z 25014KT 09/01 A2966 RMK A01 T00860005  RH  058%=      5-min Rain = 0
KDVS 110235Z 25013KT 08/01 A2965 RMK A01 T00840007  RH  059%=      5-min Rain = 0
KDVS 110240Z 25013KT 08/01 A2965 RMK A01 T00820007  RH  060%=      5-min Rain = 0
KDVS 110245Z 24011KT 08/01 A2966 RMK A01 T00790007  RH  061%=      5-min Rain = 0
KDVS 110250Z 23010KT 08/01 A2966 RMK A01 T00750007  RH  063%=      5-min Rain = 0
KDVS 110255Z 23010KT 07/01 A2966 RMK A01 T00720006  RH  064%=      5-min Rain = 0
KDVS 110300Z 24010KT 07/01 A2965 RMK A01 T00710007  RH  065%=      5-min Rain = 0
KDVS 110305Z 24011KT 07/01 A2965 RMK A01 T00720008  RH  064%=      5-min Rain = 0
KDVS 110310Z 24014KT 08/01 A2965 RMK A01 T00750009  RH  064%=      5-min Rain = 0
KDVS 110315Z 24015G20KT 08/01 A2966 RMK A01 T00790009  RH  062%=      5-min Rain = 0
KDVS 110320Z 24017KT 08/01 A2966 RMK A01 T00830008  RH  060%=      5-min Rain = 0
KDVS 110325Z 24017KT 09/01 A2966 RMK A01 T00850008  RH  059%=      5-min Rain = 0
KDVS 110330Z 24016KT 09/01 A2965 RMK A01 T00850007  RH  059%=      5-min Rain = 0
KDVS 110335Z 24016KT 08/01 A2965 RMK A01 T00830007  RH  059%=      5-min Rain = 0
KDVS 110340Z 24017KT 08/01 A2965 RMK A01 T00820006  RH  059%=      5-min Rain = 0
KDVS 110345Z 24018G23KT 08/00 A2966 RMK A01 T00820004  RH  059%=      5-min Rain = 0
KDVS 110350Z 24018G24KT 08/00 A2965 RMK A01 T00810003  RH  059%=      5-min Rain = 0
KDVS 110355Z 24019G24KT 08/00 A2965 RMK A01 T00810003  RH  058%=      5-min Rain = 0
KDVS 110400Z 24019KT 08/00 A2965 RMK A01 T00800002  RH  058%=      5-min Rain = 0
KDVS 110405Z 24018KT 08/00 A2965 RMK A01 T00790001  RH  059%=      5-min Rain = 0
KDVS 110410Z 24018KT 08/00 A2965 RMK A01 T00770001  RH  059%=      5-min Rain = 0
KDVS 110415Z 24017KT 08/00 A2965 RMK A01 T007600-0  RH  059%=      5-min Rain = 0
KDVS 110420Z 24017G22KT 08/M00 A2965 RMK A01 T00751001  RH  059%=      5-min Rain = 0
KDVS 110425Z 24018KT 08/M00 A2965 RMK A01 T00751002  RH  059%=      5-min Rain = 0
KDVS 110430Z 25018KT 08/M00 A2965 RMK A01 T00751003  RH  058%=      5-min Rain = 0
KDVS 110435Z 25017KT 08/M00 A2965 RMK A01 T00751004  RH  058%=      5-min Rain = 0
KDVS 110440Z 25015G21KT 08/M00 A2965 RMK A01 T00751004  RH  058%=      5-min Rain = 0
KDVS 110445Z 25016G21KT 07/M01 A2966 RMK A01 T00741005  RH  058%=      5-min Rain = 0
KDVS 110450Z 24016KT 07/M01 A2966 RMK A01 T00741006  RH  058%=      5-min Rain = 0
KDVS 110455Z 24014KT 07/M01 A2966 RMK A01 T00731006  RH  058%=      5-min Rain = 0
KDVS 110500Z 24015KT 07/M01 A2966 RMK A01 T00731007  RH  057%=      5-min Rain = 0
KDVS 110505Z 23015G20KT 07/M01 A2967 RMK A01 T00731008  RH  057%=      5-min Rain = 0
KDVS 110510Z 23014KT 07/M01 A2967 RMK A01 T00731008  RH  057%=      5-min Rain = 0
KDVS 110515Z 24016G23KT 07/M01 A2967 RMK A01 T00731008  RH  057%=      5-min Rain = 0
KDVS 110520Z 24018G23KT 08/M01 A2967 RMK A01 T00761008  RH  056%=      5-min Rain = 0
KDVS 110525Z 24019G24KT 08/M01 A2966 RMK A01 T00771009  RH  055%=      5-min Rain = 0
KDVS 110530Z 24020G25KT 08/M01 A2966 RMK A01 T00781008  RH  055%=      5-min Rain = 0
KDVS 110535Z 24019G26KT 08/M01 A2966 RMK A01 T00771008  RH  055%=      5-min Rain = 0
KDVS 110540Z 24019KT 08/M01 A2966 RMK A01 T00771008  RH  055%=      5-min Rain = 0
KDVS 110545Z 24019G25KT 08/M01 A2966 RMK A01 T00771008  RH  056%=      5-min Rain = 0
KDVS 110550Z 25019G24KT 08/M01 A2966 RMK A01 T00771008  RH  056%=      5-min Rain = 0
KDVS 110555Z 24018KT 08/M01 A2966 RMK A01 T00761008  RH  056%=      5-min Rain = 0

Page generated in 0.0092 seconds.